sensor_id;sensor_type;location;lat;lon;timestamp;pressure;altitude;pressure_sealevel;temperature;humidity
46876;BME280;32866;50.160;14.768;2023-03-19T00:01:06;99354.25;;;1.22;100.00
46876;BME280;32866;50.160;14.768;2023-03-19T00:03:33;99343.41;;;1.11;100.00
46876;BME280;32866;50.160;14.768;2023-03-19T00:05:59;99341.25;;;1.35;100.00
46876;BME280;32866;50.160;14.768;2023-03-19T00:08:25;99350.59;;;1.48;100.00
46876;BME280;32866;50.160;14.768;2023-03-19T00:10:50;99308.81;;;1.28;100.00
46876;BME280;32866;50.160;14.768;2023-03-19T00:13:16;99342.13;;;1.54;100.00
46876;BME280;32866;50.160;14.768;2023-03-19T00:15:41;99350.66;;;1.59;100.00
46876;BME280;32866;50.160;14.768;2023-03-19T00:18:07;99350.72;;;1.77;100.00
46876;BME280;32866;50.160;14.768;2023-03-19T00:20:32;99351.53;;;1.81;100.00
46876;BME280;32866;50.160;14.768;2023-03-19T00:22:58;99326.63;;;1.43;100.00
46876;BME280;32866;50.160;14.768;2023-03-19T00:25:23;99356.03;;;1.56;100.00
46876;BME280;32866;50.160;14.768;2023-03-19T00:27:48;99354.78;;;1.42;100.00
46876;BME280;32866;50.160;14.768;2023-03-19T00:30:14;99362.13;;;1.42;100.00
46876;BME280;32866;50.160;14.768;2023-03-19T00:32:39;99329.38;;;0.91;100.00
46876;BME280;32866;50.160;14.768;2023-03-19T00:35:06;99365.78;;;1.16;100.00
46876;BME280;32866;50.160;14.768;2023-03-19T00:37:32;99369.19;;;1.05;100.00
46876;BME280;32866;50.160;14.768;2023-03-19T00:39:58;99361.84;;;1.02;100.00
46876;BME280;32866;50.160;14.768;2023-03-19T00:42:23;99364.09;;;0.93;100.00
46876;BME280;32866;50.160;14.768;2023-03-19T00:44:49;99361.78;;;0.95;100.00
46876;BME280;32866;50.160;14.768;2023-03-19T00:47:15;99322.22;;;0.65;100.00
46876;BME280;32866;50.160;14.768;2023-03-19T00:49:40;99356.34;;;0.88;100.00
46876;BME280;32866;50.160;14.768;2023-03-19T00:52:06;99353.59;;;0.81;100.00
46876;BME280;32866;50.160;14.768;2023-03-19T00:54:32;99365.47;;;0.76;100.00
46876;BME280;32866;50.160;14.768;2023-03-19T00:56:57;99333.28;;;0.53;100.00
46876;BME280;32866;50.160;14.768;2023-03-19T00:59:23;99361.72;;;0.88;100.00
46876;BME280;32866;50.160;14.768;2023-03-19T01:01:49;99345.69;;;0.61;100.00
46876;BME280;32866;50.160;14.768;2023-03-19T01:04:16;99356.97;;;0.70;100.00
46876;BME280;32866;50.160;14.768;2023-03-19T01:06:41;99359.25;;;0.72;100.00
46876;BME280;32866;50.160;14.768;2023-03-19T01:09:07;99335.69;;;0.65;100.00
46876;BME280;32866;50.160;14.768;2023-03-19T01:11:32;99354.69;;;0.76;100.00
46876;BME280;32866;50.160;14.768;2023-03-19T01:13:57;99361.50;;;1.07;100.00
46876;BME280;32866;50.160;14.768;2023-03-19T01:16:23;99318.25;;;0.52;100.00
46876;BME280;32866;50.160;14.768;2023-03-19T01:18:48;99334.53;;;0.63;100.00
46876;BME280;32866;50.160;14.768;2023-03-19T01:21:14;99336.75;;;0.53;100.00
46876;BME280;32866;50.160;14.768;2023-03-19T01:23:39;99343.63;;;0.44;100.00
46876;BME280;32866;50.160;14.768;2023-03-19T01:26:05;99362.19;;;0.52;100.00
46876;BME280;32866;50.160;14.768;2023-03-19T01:28:30;99358.66;;;0.48;100.00
46876;BME280;32866;50.160;14.768;2023-03-19T01:31:00;99357.88;;;0.48;100.00
46876;BME280;32866;50.160;14.768;2023-03-19T01:33:26;99349.94;;;0.62;100.00
46876;BME280;32866;50.160;14.768;2023-03-19T01:35:52;99308.16;;;0.45;100.00
46876;BME280;32866;50.160;14.768;2023-03-19T01:38:17;99308.09;;;0.38;100.00
46876;BME280;32866;50.160;14.768;2023-03-19T01:40:45;99350.00;;;0.69;100.00
46876;BME280;32866;50.160;14.768;2023-03-19T01:43:15;99343.94;;;0.83;100.00
46876;BME280;32866;50.160;14.768;2023-03-19T01:45:42;99353.81;;;0.65;100.00
46876;BME280;32866;50.160;14.768;2023-03-19T01:48:19;99346.44;;;0.58;100.00
46876;BME280;32866;50.160;14.768;2023-03-19T01:50:49;99325.81;;;0.35;100.00
46876;BME280;32866;50.160;14.768;2023-03-19T01:53:22;99342.22;;;0.61;100.00
46876;BME280;32866;50.160;14.768;2023-03-19T01:55:49;99344.13;;;0.60;100.00
46876;BME280;32866;50.160;14.768;2023-03-19T01:58:15;99324.97;;;0.31;100.00
46876;BME280;32866;50.160;14.768;2023-03-19T02:00:41;99328.88;;;0.34;100.00
46876;BME280;32866;50.160;14.768;2023-03-19T02:03:06;99351.25;;;0.38;100.00
46876;BME280;32866;50.160;14.768;2023-03-19T02:05:33;99345.81;;;0.34;100.00
46876;BME280;32866;50.160;14.768;2023-03-19T02:08:02;99343.47;;;0.29;100.00
46876;BME280;32866;50.160;14.768;2023-03-19T02:10:29;99341.16;;;0.31;100.00
46876;BME280;32866;50.160;14.768;2023-03-19T02:12:55;99329.47;;;0.20;100.00
46876;BME280;32866;50.160;14.768;2023-03-19T02:15:21;99321.91;;;0.33;100.00
46876;BME280;32866;50.160;14.768;2023-03-19T02:17:46;99344.47;;;0.55;100.00
46876;BME280;32866;50.160;14.768;2023-03-19T02:20:17;99350.94;;;0.47;100.00
46876;BME280;32866;50.160;14.768;2023-03-19T02:25:29;99338.47;;;0.72;100.00
46876;BME280;32866;50.160;14.768;2023-03-19T02:27:57;99352.69;;;0.69;100.00
46876;BME280;32866;50.160;14.768;2023-03-19T02:30:29;99340.69;;;0.63;100.00
46876;BME280;32866;50.160;14.768;2023-03-19T02:32:55;99308.94;;;0.42;100.00
46876;BME280;32866;50.160;14.768;2023-03-19T02:35:21;99284.19;;;0.33;100.00
46876;BME280;32866;50.160;14.768;2023-03-19T02:37:46;99293.38;;;0.28;100.00
46876;BME280;32866;50.160;14.768;2023-03-19T02:40:15;99345.41;;;0.32;100.00
46876;BME280;32866;50.160;14.768;2023-03-19T02:42:42;99316.00;;;0.20;100.00
46876;BME280;32866;50.160;14.768;2023-03-19T02:45:07;99340.59;;;0.52;100.00
46876;BME280;32866;50.160;14.768;2023-03-19T02:47:33;99334.56;;;0.66;100.00
46876;BME280;32866;50.160;14.768;2023-03-19T02:49:59;99288.53;;;0.45;100.00
46876;BME280;32866;50.160;14.768;2023-03-19T02:52:25;99304.63;;;0.38;100.00
46876;BME280;32866;50.160;14.768;2023-03-19T02:54:50;99347.66;;;0.64;100.00
46876;BME280;32866;50.160;14.768;2023-03-19T02:57:16;99357.69;;;0.64;100.00
46876;BME280;32866;50.160;14.768;2023-03-19T02:59:41;99313.47;;;0.34;100.00
46876;BME280;32866;50.160;14.768;2023-03-19T03:02:06;99347.31;;;0.69;100.00
46876;BME280;32866;50.160;14.768;2023-03-19T03:04:32;99348.72;;;0.56;100.00
46876;BME280;32866;50.160;14.768;2023-03-19T03:06:59;99351.97;;;0.72;100.00
46876;BME280;32866;50.160;14.768;2023-03-19T03:09:25;99360.03;;;0.69;100.00
46876;BME280;32866;50.160;14.768;2023-03-19T03:11:51;99362.38;;;0.74;100.00
46876;BME280;32866;50.160;14.768;2023-03-19T03:14:16;99331.25;;;0.43;100.00
46876;BME280;32866;50.160;14.768;2023-03-19T03:16:42;99367.00;;;0.77;100.00
46876;BME280;32866;50.160;14.768;2023-03-19T03:19:08;99363.56;;;0.77;100.00
46876;BME280;32866;50.160;14.768;2023-03-19T03:21:33;99319.72;;;0.42;100.00
46876;BME280;32866;50.160;14.768;2023-03-19T03:23:59;99364.09;;;0.52;100.00
46876;BME280;32866;50.160;14.768;2023-03-19T03:26:25;99314.59;;;-0.04;100.00
46876;BME280;32866;50.160;14.768;2023-03-19T03:28:51;99350.75;;;0.25;100.00
46876;BME280;32866;50.160;14.768;2023-03-19T03:31:17;99354.34;;;0.40;100.00
46876;BME280;32866;50.160;14.768;2023-03-19T03:33:43;99345.34;;;0.66;100.00
46876;BME280;32866;50.160;14.768;2023-03-19T03:36:08;99309.72;;;0.46;100.00
46876;BME280;32866;50.160;14.768;2023-03-19T03:38:33;99347.91;;;0.97;100.00
46876;BME280;32866;50.160;14.768;2023-03-19T03:40:59;99334.69;;;0.81;100.00
46876;BME280;32866;50.160;14.768;2023-03-19T03:43:24;99320.28;;;0.62;100.00
46876;BME280;32866;50.160;14.768;2023-03-19T03:45:50;99330.97;;;0.51;100.00
46876;BME280;32866;50.160;14.768;2023-03-19T03:48:16;99363.22;;;0.82;100.00
46876;BME280;32866;50.160;14.768;2023-03-19T03:50:41;99363.16;;;0.74;100.00
46876;BME280;32866;50.160;14.768;2023-03-19T03:53:06;99370.03;;;0.68;100.00
46876;BME280;32866;50.160;14.768;2023-03-19T03:55:33;99373.78;;;0.60;100.00
46876;BME280;32866;50.160;14.768;2023-03-19T03:57:59;99370.47;;;0.36;100.00
46876;BME280;32866;50.160;14.768;2023-03-19T04:00:25;99371.91;;;0.27;100.00
46876;BME280;32866;50.160;14.768;2023-03-19T04:02:50;99332.91;;;-0.17;100.00
46876;BME280;32866;50.160;14.768;2023-03-19T04:05:16;99362.38;;;-0.01;100.00
46876;BME280;32866;50.160;14.768;2023-03-19T04:07:42;99315.72;;;-0.39;100.00
46876;BME280;32866;50.160;14.768;2023-03-19T04:10:09;99368.72;;;-0.16;100.00
46876;BME280;32866;50.160;14.768;2023-03-19T04:12:36;99363.81;;;-0.07;100.00
46876;BME280;32866;50.160;14.768;2023-03-19T04:15:05;99359.94;;;0.21;100.00
46876;BME280;32866;50.160;14.768;2023-03-19T04:17:30;99306.94;;;0.02;100.00
46876;BME280;32866;50.160;14.768;2023-03-19T04:19:56;99364.63;;;0.27;100.00
46876;BME280;32866;50.160;14.768;2023-03-19T04:22:21;99371.38;;;0.10;100.00
46876;BME280;32866;50.160;14.768;2023-03-19T04:24:46;99340.66;;;-0.12;100.00
46876;BME280;32866;50.160;14.768;2023-03-19T04:27:12;99361.84;;;-0.10;100.00
46876;BME280;32866;50.160;14.768;2023-03-19T04:29:37;99367.56;;;-0.15;100.00
46876;BME280;32866;50.160;14.768;2023-03-19T04:32:03;99373.06;;;-0.08;100.00
46876;BME280;32866;50.160;14.768;2023-03-19T04:34:28;99373.69;;;0.12;100.00
46876;BME280;32866;50.160;14.768;2023-03-19T04:36:54;99356.31;;;0.09;100.00
46876;BME280;32866;50.160;14.768;2023-03-19T04:39:20;99376.16;;;0.28;100.00
46876;BME280;32866;50.160;14.768;2023-03-19T04:41:45;99343.59;;;0.06;100.00
46876;BME280;32866;50.160;14.768;2023-03-19T04:44:11;99341.59;;;-0.01;100.00
46876;BME280;32866;50.160;14.768;2023-03-19T04:46:36;99349.84;;;-0.20;100.00
46876;BME280;32866;50.160;14.768;2023-03-19T04:49:02;99363.59;;;-0.25;100.00
46876;BME280;32866;50.160;14.768;2023-03-19T04:51:27;99339.81;;;-0.50;100.00
46876;BME280;32866;50.160;14.768;2023-03-19T04:53:53;99384.72;;;-0.27;100.00
46876;BME280;32866;50.160;14.768;2023-03-19T04:56:19;99383.34;;;-0.44;100.00
46876;BME280;32866;50.160;14.768;2023-03-19T04:58:44;99388.25;;;-0.23;100.00
46876;BME280;32866;50.160;14.768;2023-03-19T05:01:10;99381.41;;;-0.17;100.00
46876;BME280;32866;50.160;14.768;2023-03-19T05:03:35;99361.69;;;-0.55;100.00
46876;BME280;32866;50.160;14.768;2023-03-19T05:06:01;99375.00;;;-0.35;100.00
46876;BME280;32866;50.160;14.768;2023-03-19T05:08:27;99391.97;;;-0.35;100.00
46876;BME280;32866;50.160;14.768;2023-03-19T05:10:52;99391.47;;;-0.41;100.00
46876;BME280;32866;50.160;14.768;2023-03-19T05:13:18;99388.00;;;-0.41;100.00
46876;BME280;32866;50.160;14.768;2023-03-19T05:15:43;99383.41;;;-0.41;100.00
46876;BME280;32866;50.160;14.768;2023-03-19T05:18:09;99395.19;;;-0.22;100.00
46876;BME280;32866;50.160;14.768;2023-03-19T05:20:35;99401.13;;;-0.09;100.00
46876;BME280;32866;50.160;14.768;2023-03-19T05:23:01;99400.56;;;-0.22;100.00
46876;BME280;32866;50.160;14.768;2023-03-19T05:25:27;99385.78;;;-0.35;100.00
46876;BME280;32866;50.160;14.768;2023-03-19T05:27:54;99397.75;;;-0.03;100.00
46876;BME280;32866;50.160;14.768;2023-03-19T05:30:20;99403.06;;;-0.10;100.00
46876;BME280;32866;50.160;14.768;2023-03-19T05:32:45;99397.34;;;-0.05;100.00
46876;BME280;32866;50.160;14.768;2023-03-19T05:35:11;99354.63;;;-0.36;100.00
46876;BME280;32866;50.160;14.768;2023-03-19T05:37:37;99389.59;;;-0.10;100.00
46876;BME280;32866;50.160;14.768;2023-03-19T05:40:03;99384.28;;;-0.03;100.00
46876;BME280;32866;50.160;14.768;2023-03-19T05:42:29;99393.31;;;0.12;100.00
46876;BME280;32866;50.160;14.768;2023-03-19T05:44:54;99389.34;;;0.36;100.00
46876;BME280;32866;50.160;14.768;2023-03-19T05:47:19;99398.75;;;0.50;100.00
46876;BME280;32866;50.160;14.768;2023-03-19T05:49:45;99363.97;;;0.38;100.00
46876;BME280;32866;50.160;14.768;2023-03-19T05:52:11;99395.03;;;0.65;100.00
46876;BME280;32866;50.160;14.768;2023-03-19T05:54:36;99399.00;;;0.75;100.00
46876;BME280;32866;50.160;14.768;2023-03-19T05:57:02;99397.69;;;0.99;100.00
46876;BME280;32866;50.160;14.768;2023-03-19T05:59:27;99411.22;;;1.06;100.00
46876;BME280;32866;50.160;14.768;2023-03-19T06:01:53;99412.91;;;1.22;100.00
46876;BME280;32866;50.160;14.768;2023-03-19T06:04:18;99402.78;;;1.11;100.00
46876;BME280;32866;50.160;14.768;2023-03-19T06:06:43;99423.13;;;1.46;100.00
46876;BME280;32866;50.160;14.768;2023-03-19T06:09:09;99380.16;;;1.27;100.00
46876;BME280;32866;50.160;14.768;2023-03-19T06:11:34;99425.56;;;1.66;100.00
46876;BME280;32866;50.160;14.768;2023-03-19T06:14:03;99421.72;;;1.71;100.00
46876;BME280;32866;50.160;14.768;2023-03-19T06:16:29;99383.81;;;1.53;100.00
46876;BME280;32866;50.160;14.768;2023-03-19T06:18:54;99397.53;;;1.96;100.00
46876;BME280;32866;50.160;14.768;2023-03-19T06:21:19;99416.91;;;2.09;100.00
46876;BME280;32866;50.160;14.768;2023-03-19T06:23:45;99427.81;;;2.30;100.00
46876;BME280;32866;50.160;14.768;2023-03-19T06:26:10;99409.63;;;2.16;100.00
46876;BME280;32866;50.160;14.768;2023-03-19T06:28:36;99405.00;;;2.31;100.00
46876;BME280;32866;50.160;14.768;2023-03-19T06:31:01;99412.84;;;2.62;100.00
46876;BME280;32866;50.160;14.768;2023-03-19T06:33:26;99431.09;;;3.01;100.00
46876;BME280;32866;50.160;14.768;2023-03-19T06:35:56;99433.78;;;2.97;100.00
46876;BME280;32866;50.160;14.768;2023-03-19T06:38:22;99408.63;;;2.75;100.00
46876;BME280;32866;50.160;14.768;2023-03-19T06:40:47;99390.41;;;2.65;100.00
46876;BME280;32866;50.160;14.768;2023-03-19T06:43:12;99416.00;;;3.10;100.00
46876;BME280;32866;50.160;14.768;2023-03-19T06:45:38;99442.31;;;3.35;100.00
46876;BME280;32866;50.160;14.768;2023-03-19T06:48:03;99442.28;;;3.75;100.00
46876;BME280;32866;50.160;14.768;2023-03-19T06:50:29;99414.41;;;3.78;100.00
46876;BME280;32866;50.160;14.768;2023-03-19T06:52:54;99442.13;;;4.32;100.00
46876;BME280;32866;50.160;14.768;2023-03-19T06:55:20;99441.28;;;4.50;100.00
46876;BME280;32866;50.160;14.768;2023-03-19T06:57:49;99461.38;;;4.63;100.00
46876;BME280;32866;50.160;14.768;2023-03-19T07:00:15;99465.19;;;4.69;100.00
46876;BME280;32866;50.160;14.768;2023-03-19T07:02:41;99453.19;;;4.70;100.00
46876;BME280;32866;50.160;14.768;2023-03-19T07:05:07;99434.25;;;4.59;100.00
46876;BME280;32866;50.160;14.768;2023-03-19T07:07:32;99455.03;;;4.84;100.00
46876;BME280;32866;50.160;14.768;2023-03-19T07:09:57;99449.56;;;4.95;100.00
46876;BME280;32866;50.160;14.768;2023-03-19T07:12:23;99446.06;;;4.91;100.00
46876;BME280;32866;50.160;14.768;2023-03-19T07:14:52;99443.75;;;4.93;100.00
46876;BME280;32866;50.160;14.768;2023-03-19T07:17:17;99439.66;;;5.23;100.00
46876;BME280;32866;50.160;14.768;2023-03-19T07:19:42;99422.31;;;5.06;100.00
46876;BME280;32866;50.160;14.768;2023-03-19T07:22:08;99426.97;;;5.05;100.00
46876;BME280;32866;50.160;14.768;2023-03-19T07:24:33;99467.63;;;5.23;100.00
46876;BME280;32866;50.160;14.768;2023-03-19T07:26:58;99460.31;;;5.09;100.00
46876;BME280;32866;50.160;14.768;2023-03-19T07:29:24;99442.44;;;5.15;100.00
46876;BME280;32866;50.160;14.768;2023-03-19T07:31:49;99432.06;;;4.96;100.00
46876;BME280;32866;50.160;14.768;2023-03-19T07:34:15;99436.41;;;4.90;100.00
46876;BME280;32866;50.160;14.768;2023-03-19T07:36:40;99484.16;;;5.43;100.00
46876;BME280;32866;50.160;14.768;2023-03-19T07:39:05;99477.38;;;5.62;100.00
46876;BME280;32866;50.160;14.768;2023-03-19T07:41:31;99473.16;;;5.57;100.00
46876;BME280;32866;50.160;14.768;2023-03-19T07:43:56;99481.63;;;5.67;100.00
46876;BME280;32866;50.160;14.768;2023-03-19T07:46:21;99475.59;;;5.45;100.00
46876;BME280;32866;50.160;14.768;2023-03-19T07:48:47;99473.94;;;5.54;100.00
46876;BME280;32866;50.160;14.768;2023-03-19T07:51:12;99484.22;;;5.81;100.00
46876;BME280;32866;50.160;14.768;2023-03-19T07:53:38;99491.75;;;6.08;100.00
46876;BME280;32866;50.160;14.768;2023-03-19T07:56:03;99463.06;;;6.00;100.00
46876;BME280;32866;50.160;14.768;2023-03-19T07:58:29;99478.56;;;6.41;100.00
46876;BME280;32866;50.160;14.768;2023-03-19T08:00:54;99487.38;;;6.52;100.00
46876;BME280;32866;50.160;14.768;2023-03-19T08:03:20;99487.44;;;6.79;100.00
46876;BME280;32866;50.160;14.768;2023-03-19T08:05:48;99449.50;;;6.92;100.00
46876;BME280;32866;50.160;14.768;2023-03-19T08:08:14;99445.28;;;6.87;100.00
46876;BME280;32866;50.160;14.768;2023-03-19T08:10:40;99478.84;;;7.59;100.00
46876;BME280;32866;50.160;14.768;2023-03-19T08:13:05;99479.91;;;7.41;100.00
46876;BME280;32866;50.160;14.768;2023-03-19T08:15:31;99467.72;;;7.50;100.00
46876;BME280;32866;50.160;14.768;2023-03-19T08:17:58;99485.47;;;8.05;100.00
46876;BME280;32866;50.160;14.768;2023-03-19T08:20:23;99494.66;;;9.28;100.00
46876;BME280;32866;50.160;14.768;2023-03-19T08:22:49;99473.47;;;9.32;100.00
46876;BME280;32866;50.160;14.768;2023-03-19T08:25:15;99502.53;;;8.89;100.00
46876;BME280;32866;50.160;14.768;2023-03-19T08:27:40;99457.50;;;8.78;100.00
46876;BME280;32866;50.160;14.768;2023-03-19T08:30:08;99508.28;;;8.15;100.00
46876;BME280;32866;50.160;14.768;2023-03-19T08:32:34;99500.78;;;7.75;100.00
46876;BME280;32866;50.160;14.768;2023-03-19T08:35:00;99479.69;;;7.79;100.00
46876;BME280;32866;50.160;14.768;2023-03-19T08:37:26;99485.97;;;7.76;100.00
46876;BME280;32866;50.160;14.768;2023-03-19T08:39:51;99457.19;;;8.15;100.00
46876;BME280;32866;50.160;14.768;2023-03-19T08:42:17;99494.88;;;8.44;100.00
46876;BME280;32866;50.160;14.768;2023-03-19T08:47:18;99464.47;;;8.62;100.00
46876;BME280;32866;50.160;14.768;2023-03-19T08:49:44;99467.84;;;8.30;100.00
46876;BME280;32866;50.160;14.768;2023-03-19T08:52:10;99449.81;;;9.25;100.00
46876;BME280;32866;50.160;14.768;2023-03-19T08:54:36;99479.75;;;10.24;100.00
46876;BME280;32866;50.160;14.768;2023-03-19T08:57:01;99457.53;;;9.76;100.00
46876;BME280;32866;50.160;14.768;2023-03-19T08:59:27;99489.06;;;10.56;100.00
46876;BME280;32866;50.160;14.768;2023-03-19T09:01:53;99481.00;;;10.91;100.00
46876;BME280;32866;50.160;14.768;2023-03-19T09:04:19;99487.25;;;11.17;100.00
46876;BME280;32866;50.160;14.768;2023-03-19T09:06:46;99482.22;;;11.16;100.00
46876;BME280;32866;50.160;14.768;2023-03-19T09:09:15;99465.31;;;11.17;100.00
46876;BME280;32866;50.160;14.768;2023-03-19T09:11:40;99491.50;;;11.44;100.00
46876;BME280;32866;50.160;14.768;2023-03-19T09:14:06;99469.69;;;11.27;99.06
46876;BME280;32866;50.160;14.768;2023-03-19T09:16:31;99455.78;;;11.22;93.93
46876;BME280;32866;50.160;14.768;2023-03-19T09:18:57;99440.75;;;10.75;96.60
46876;BME280;32866;50.160;14.768;2023-03-19T09:21:22;99463.09;;;10.48;100.00
46876;BME280;32866;50.160;14.768;2023-03-19T09:23:47;99439.19;;;10.48;98.27
46876;BME280;32866;50.160;14.768;2023-03-19T09:26:13;99481.31;;;11.06;94.69
46876;BME280;32866;50.160;14.768;2023-03-19T09:28:38;99478.59;;;11.19;91.29
46876;BME280;32866;50.160;14.768;2023-03-19T09:31:08;99446.97;;;11.40;92.71
46876;BME280;32866;50.160;14.768;2023-03-19T09:33:33;99485.47;;;11.49;89.35
46876;BME280;32866;50.160;14.768;2023-03-19T09:35:58;99457.63;;;11.73;89.13
46876;BME280;32866;50.160;14.768;2023-03-19T09:38:24;99457.78;;;12.04;89.19
46876;BME280;32866;50.160;14.768;2023-03-19T09:41:19;99434.00;;;12.54;82.45
46876;BME280;32866;50.160;14.768;2023-03-19T09:44:01;99460.75;;;12.94;78.85
46876;BME280;32866;50.160;14.768;2023-03-19T09:46:41;99466.06;;;12.57;76.84
46876;BME280;32866;50.160;14.768;2023-03-19T09:49:21;99444.25;;;12.94;80.79
46876;BME280;32866;50.160;14.768;2023-03-19T09:51:54;99468.72;;;14.72;65.27
46876;BME280;32866;50.160;14.768;2023-03-19T09:56:52;99451.19;;;14.04;58.93
46876;BME280;32866;50.160;14.768;2023-03-19T09:59:21;99479.66;;;14.10;58.71
46876;BME280;32866;50.160;14.768;2023-03-19T10:01:56;99476.22;;;14.71;55.94
46876;BME280;32866;50.160;14.768;2023-03-19T10:04:40;99475.03;;;14.96;53.58
46876;BME280;32866;50.160;14.768;2023-03-19T10:07:48;99479.13;;;15.68;46.21
46876;BME280;32866;50.160;14.768;2023-03-19T10:13:21;99477.78;;;16.26;46.67
46876;BME280;32866;50.160;14.768;2023-03-19T10:15:49;99449.00;;;15.79;45.80
46876;BME280;32866;50.160;14.768;2023-03-19T10:18:24;99473.22;;;15.84;45.10
46876;BME280;32866;50.160;14.768;2023-03-19T10:20:54;99468.63;;;15.81;46.38
46876;BME280;32866;50.160;14.768;2023-03-19T10:23:47;99468.34;;;16.33;45.89
46876;BME280;32866;50.160;14.768;2023-03-19T10:26:17;99457.41;;;17.39;43.35
46876;BME280;32866;50.160;14.768;2023-03-19T10:28:45;99442.88;;;17.24;45.39
46876;BME280;32866;50.160;14.768;2023-03-19T10:31:36;99450.91;;;18.88;40.55
46876;BME280;32866;50.160;14.768;2023-03-19T10:34:25;99454.31;;;20.13;37.47
46876;BME280;32866;50.160;14.768;2023-03-19T10:37:20;99456.38;;;20.35;36.21
46876;BME280;32866;50.160;14.768;2023-03-19T10:39:48;99437.66;;;20.47;36.16
46876;BME280;32866;50.160;14.768;2023-03-19T10:45:20;99450.00;;;20.06;35.41
46876;BME280;32866;50.160;14.768;2023-03-19T10:47:48;99453.88;;;20.77;34.74
46876;BME280;32866;50.160;14.768;2023-03-19T10:50:19;99450.28;;;20.48;34.57
46876;BME280;32866;50.160;14.768;2023-03-19T10:52:51;99450.94;;;19.32;36.26
46876;BME280;32866;50.160;14.768;2023-03-19T10:55:24;99445.13;;;19.84;35.06
46876;BME280;32866;50.160;14.768;2023-03-19T10:57:55;99421.34;;;21.36;32.34
46876;BME280;32866;50.160;14.768;2023-03-19T11:00:28;99433.13;;;21.76;31.64
46876;BME280;32866;50.160;14.768;2023-03-19T11:02:56;99415.78;;;22.36;30.57
46876;BME280;32866;50.160;14.768;2023-03-19T11:05:25;99421.94;;;22.89;29.94
46876;BME280;32866;50.160;14.768;2023-03-19T11:07:57;99420.16;;;21.78;30.77
46876;BME280;32866;50.160;14.768;2023-03-19T11:10:26;99423.97;;;22.22;29.89
46876;BME280;32866;50.160;14.768;2023-03-19T11:12:56;99424.44;;;21.21;30.47
46876;BME280;32866;50.160;14.768;2023-03-19T11:15:27;99414.41;;;20.50;31.21
46876;BME280;32866;50.160;14.768;2023-03-19T11:18:05;99396.47;;;21.55;29.78
46876;BME280;32866;50.160;14.768;2023-03-19T11:20:34;99404.72;;;23.10;29.53
46876;BME280;32866;50.160;14.768;2023-03-19T11:23:01;99410.22;;;23.59;27.88
46876;BME280;32866;50.160;14.768;2023-03-19T11:25:46;99395.06;;;22.56;30.64
46876;BME280;32866;50.160;14.768;2023-03-19T11:28:24;99408.50;;;23.94;28.01
46876;BME280;32866;50.160;14.768;2023-03-19T11:33:45;99398.56;;;21.37;31.37
46876;BME280;32866;50.160;14.768;2023-03-19T11:45:04;99395.13;;;25.99;26.38
46876;BME280;32866;50.160;14.768;2023-03-19T11:55:24;99364.97;;;24.44;26.80
46876;BME280;32866;50.160;14.768;2023-03-19T12:05:55;99397.16;;;19.89;34.38
46876;BME280;32866;50.160;14.768;2023-03-19T12:08:41;99392.59;;;20.93;32.16
46876;BME280;32866;50.160;14.768;2023-03-19T12:11:52;99395.91;;;20.47;32.59
46876;BME280;32866;50.160;14.768;2023-03-19T12:14:15;99386.31;;;20.36;32.51
46876;BME280;32866;50.160;14.768;2023-03-19T12:22:23;99377.63;;;17.38;37.25
46876;BME280;32866;50.160;14.768;2023-03-19T12:25:06;99382.00;;;17.09;39.48
46876;BME280;32866;50.160;14.768;2023-03-19T12:33:25;99371.81;;;18.35;37.22
46876;BME280;32866;50.160;14.768;2023-03-19T12:35:55;99353.59;;;17.76;37.94
46876;BME280;32866;50.160;14.768;2023-03-19T12:38:26;99367.84;;;17.63;38.54
46876;BME280;32866;50.160;14.768;2023-03-19T12:41:05;99335.78;;;18.09;37.46
46876;BME280;32866;50.160;14.768;2023-03-19T12:46:01;99360.97;;;17.85;38.48
46876;BME280;32866;50.160;14.768;2023-03-19T12:48:38;99354.97;;;16.48;40.68
46876;BME280;32866;50.160;14.768;2023-03-19T12:51:08;99347.56;;;16.75;40.52
46876;BME280;32866;50.160;14.768;2023-03-19T12:54:00;99349.66;;;16.80;43.58
46876;BME280;32866;50.160;14.768;2023-03-19T12:56:38;99325.31;;;15.74;43.14
46876;BME280;32866;50.160;14.768;2023-03-19T12:59:52;99346.22;;;16.05;43.53
46876;BME280;32866;50.160;14.768;2023-03-19T13:04:54;99343.19;;;15.49;44.88
46876;BME280;32866;50.160;14.768;2023-03-19T13:07:21;99354.59;;;15.17;44.25
46876;BME280;32866;50.160;14.768;2023-03-19T13:09:55;99356.44;;;15.84;43.36
46876;BME280;32866;50.160;14.768;2023-03-19T13:12:25;99347.00;;;15.51;44.00
46876;BME280;32866;50.160;14.768;2023-03-19T13:17:43;99326.13;;;15.89;43.79
46876;BME280;32866;50.160;14.768;2023-03-19T13:23:02;99352.19;;;16.48;41.74
46876;BME280;32866;50.160;14.768;2023-03-19T13:25:37;99337.91;;;16.35;42.96
46876;BME280;32866;50.160;14.768;2023-03-19T13:28:15;99350.03;;;15.77;43.21
46876;BME280;32866;50.160;14.768;2023-03-19T13:30:58;99366.97;;;15.46;44.41
46876;BME280;32866;50.160;14.768;2023-03-19T13:33:25;99344.44;;;15.63;43.56
46876;BME280;32866;50.160;14.768;2023-03-19T13:35:51;99358.41;;;15.44;43.79
46876;BME280;32866;50.160;14.768;2023-03-19T13:38:37;99350.84;;;15.06;46.82
46876;BME280;32866;50.160;14.768;2023-03-19T13:41:04;99347.56;;;14.92;46.73
46876;BME280;32866;50.160;14.768;2023-03-19T13:49:23;99348.84;;;14.82;47.22
46876;BME280;32866;50.160;14.768;2023-03-19T13:51:50;99352.66;;;14.84;46.70
46876;BME280;32866;50.160;14.768;2023-03-19T13:54:18;99328.13;;;14.87;46.56
46876;BME280;32866;50.160;14.768;2023-03-19T13:59:27;99351.44;;;15.10;47.73
46876;BME280;32866;50.160;14.768;2023-03-19T14:01:54;99335.22;;;15.02;47.51
46876;BME280;32866;50.160;14.768;2023-03-19T14:04:27;99345.63;;;15.32;48.95